Time;durP1;ratioP1;P1;durP2;ratioP2;P2;SDS_P1;SDS_P2;PMS_P1;PMS_P2;Temp;Humidity;BMP_temperature;BMP_pressure;BME280_temperature;BME280_humidity;BME280_pressure;Samples;Min_cycle;Max_cycle;Signal;HPM_P1;HPM_P2
2021/11/04 00:02:38;;;;;;;4.72;1.52;;;;;;;9.10;nan;98940.53;5015142;28;20056;-71
2021/11/04 00:05:24;;;;;;;3.20;2.42;;;;;;;9.20;nan;98936.72;5000444;28;20571;-70
2021/11/04 00:08:08;;;;;;;2.75;1.70;;;;;;;9.30;nan;98933.88;5000354;28;20124;-70
2021/11/04 00:10:52;;;;;;;2.20;1.90;;;;;;;9.26;nan;98929.91;4999929;28;20060;-71
2021/11/04 00:13:36;;;;;;;4.38;1.92;;;;;;;9.21;nan;98937.53;5000062;28;20103;-70
2021/11/04 00:16:19;;;;;;;4.03;1.95;;;;;;;9.36;nan;98941.19;4999357;28;20132;-70
2021/11/04 00:19:03;;;;;;;2.75;1.80;;;;;;;9.39;nan;98946.16;4999770;28;20048;-71
2021/11/04 00:21:48;;;;;;;3.20;2.22;;;;;;;9.19;nan;98966.13;4999975;28;20060;-71
2021/11/04 00:24:32;;;;;;;3.67;2.00;;;;;;;9.11;nan;98972.28;4999723;28;20096;-71
2021/11/04 00:27:15;;;;;;;9.25;2.05;;;;;;;9.05;nan;98980.09;5000116;28;20048;-70
2021/11/04 00:29:59;;;;;;;6.45;2.47;;;;;;;8.99;nan;98986.03;4999665;28;20411;-70
2021/11/04 00:32:46;;;;;;;3.78;1.83;;;;;;;8.95;nan;98987.38;4999739;28;20621;-71
2021/11/04 00:35:30;;;;;;;3.85;2.17;;;;;;;8.96;nan;98986.38;5000176;28;20096;-71
2021/11/04 00:38:14;;;;;;;3.05;2.50;;;;;;;8.94;nan;98983.03;4999545;28;20073;-70
2021/11/04 00:40:58;;;;;;;4.28;2.53;;;;;;;9.11;nan;98979.41;4985872;28;20048;-71
2021/11/04 00:43:43;;;;;;;7.45;2.80;;;;;;;8.96;nan;98975.75;5014464;28;20100;-71
2021/11/04 00:46:28;;;;;;;5.10;2.85;;;;;;;8.96;nan;98976.56;4999432;28;20068;-71
2021/11/04 00:49:12;;;;;;;5.00;3.33;;;;;;;9.08;nan;98977.09;4999261;28;20183;-69
2021/11/04 00:51:56;;;;;;;4.63;3.10;;;;;;;9.07;nan;98984.22;4999474;28;20065;-70
2021/11/04 00:54:40;;;;;;;5.43;3.80;;;;;;;9.07;nan;98984.22;4985578;28;20095;-71
2021/11/04 00:57:23;;;;;;;10.23;3.60;;;;;;;8.85;nan;98982.19;4985877;28;20121;-70
2021/11/04 01:00:11;;;;;;;5.88;4.38;;;;;;;8.97;nan;98998.69;4999176;28;20056;-70
2021/11/04 01:02:55;;;;;;;5.60;3.83;;;;;;;8.80;nan;99007.59;4985278;28;20080;-71
2021/11/04 01:05:39;;;;;;;8.15;4.22;;;;;;;8.72;nan;99010.25;4999229;28;20052;-71
2021/11/04 01:08:23;;;;;;;7.22;4.20;;;;;;;8.78;nan;99013.06;4999306;28;20131;-70
2021/11/04 01:11:07;;;;;;;5.80;4.35;;;;;;;8.68;nan;99025.66;5014030;28;20056;-70
2021/11/04 01:13:51;;;;;;;5.25;4.00;;;;;;;8.67;nan;99028.50;4985101;28;20196;-70
2021/11/04 01:16:35;;;;;;;7.82;4.53;;;;;;;8.58;nan;99029.47;4999043;28;20095;-70
2021/11/04 01:19:19;;;;;;;5.45;3.92;;;;;;;8.54;nan;99033.47;5014016;28;20056;-70
2021/11/04 01:22:03;;;;;;;7.57;4.93;;;;;;;8.63;nan;99027.16;4998828;28;20044;-70
2021/11/04 01:24:47;;;;;;;5.85;4.47;;;;;;;8.66;nan;99026.84;4998514;28;20427;-70
2021/11/04 01:27:31;;;;;;;5.15;3.72;;;;;;;8.39;nan;99035.03;4999055;28;20403;-70
2021/11/04 01:30:15;;;;;;;7.78;4.88;;;;;;;8.52;nan;99030.09;5013747;28;20049;-70
2021/11/04 01:32:59;;;;;;;7.47;5.20;;;;;;;8.67;nan;99029.31;4984777;28;20422;-70
2021/11/04 01:35:43;;;;;;;7.18;4.85;;;;;;;8.55;nan;99030.63;4999015;28;20048;-71
2021/11/04 01:38:27;;;;;;;7.65;4.40;;;;;;;8.46;nan;99020.16;5013667;28;20092;-70
2021/11/04 01:41:11;;;;;;;7.75;5.18;;;;;;;8.61;nan;99018.50;4999091;28;20391;-71
2021/11/04 01:43:55;;;;;;;8.70;5.13;;;;;;;8.66;nan;99014.38;4998888;28;20053;-70
2021/11/04 01:46:38;;;;;;;6.60;4.38;;;;;;;8.46;nan;99009.53;4998629;28;20476;-71
2021/11/04 01:49:23;;;;;;;6.40;4.63;;;;;;;8.69;nan;99005.25;4998529;28;20048;-71
2021/11/04 01:52:08;;;;;;;5.97;4.57;;;;;;;8.70;nan;99006.91;4998398;28;20104;-71
2021/11/04 01:54:52;;;;;;;8.57;5.55;;;;;;;8.59;nan;99007.22;4998696;28;20048;-70
2021/11/04 01:57:36;;;;;;;;;;;;;;;8.45;nan;99013.19;4999086;28;20188;-71
2021/11/04 02:00:24;;;;;;;7.35;4.72;;;;;;;8.38;nan;99009.50;5013192;28;20023;-70
2021/11/04 02:03:22;;;;;;;8.77;4.53;;;;;;;8.32;nan;99007.47;4998651;28;20470;-70
2021/11/04 02:06:11;;;;;;;5.10;4.20;;;;;;;8.44;nan;99000.88;4998177;28;20045;-70
2021/11/04 02:09:09;;;;;;;6.35;4.40;;;;;;;8.46;nan;99004.22;5013175;28;20415;-70
2021/11/04 02:12:03;;;;;;;9.13;4.30;;;;;;;8.49;nan;98998.56;4998370;28;20099;-71
2021/11/04 02:14:53;;;;;;;8.32;4.43;;;;;;;8.64;nan;98983.69;4985009;28;20088;-71
2021/11/04 02:17:42;;;;;;;7.22;4.38;;;;;;;8.55;nan;98995.28;4998409;28;20549;-71
2021/11/04 02:20:43;;;;;;;7.72;4.38;;;;;;;8.66;nan;98987.00;4998092;28;20446;-70
2021/11/04 02:23:33;;;;;;;6.03;3.83;;;;;;;8.54;nan;98990.97;5013265;28;20119;-71
2021/11/04 02:26:19;;;;;;;5.72;4.22;;;;;;;8.44;nan;98998.25;4998375;28;20049;-70
2021/11/04 02:29:05;;;;;;;5.45;4.07;;;;;;;8.24;nan;99004.81;4984438;28;20418;-70
2021/11/04 02:31:49;;;;;;;6.97;4.57;;;;;;;8.22;nan;99004.09;4984254;28;20510;-71
2021/11/04 02:34:34;;;;;;;6.43;4.32;;;;;;;8.26;nan;99018.75;4998329;28;20084;-71
2021/11/04 02:37:18;;;;;;;6.35;4.15;;;;;;;8.29;nan;99018.41;4998209;28;20104;-71
2021/11/04 02:40:03;;;;;;;6.35;4.07;;;;;;;8.20;nan;99014.06;5001557;28;20052;-71
2021/11/04 02:42:48;;;;;;;7.53;4.13;;;;;;;8.32;nan;99008.31;5001873;28;20104;-70
2021/11/04 02:45:32;;;;;;;6.32;3.97;;;;;;;8.07;nan;99022.44;5001690;28;20069;-70
2021/11/04 02:48:17;;;;;;;10.55;4.30;;;;;;;8.37;nan;99018.44;5001798;28;20048;-70
2021/11/04 02:51:01;;;;;;;6.40;4.20;;;;;;;8.24;nan;99026.03;5016607;28;20096;-70
2021/11/04 02:53:46;;;;;;;6.65;4.40;;;;;;;8.15;nan;99040.22;4987625;28;20471;-70
2021/11/04 02:56:52;;;;;;;5.63;4.32;;;;;;;8.20;nan;99045.91;5001310;28;20048;-70
2021/11/04 02:59:36;;;;;;;5.15;4.47;;;;;;;8.26;nan;99048.75;5002333;28;20045;-70
2021/11/04 03:02:20;;;;;;;6.25;5.03;;;;;;;8.16;nan;99055.16;5001398;28;20435;-71
2021/11/04 03:05:05;;;;;;;6.78;4.50;;;;;;;8.23;nan;99061.53;5016158;28;20088;-70
2021/11/04 03:07:48;;;;;;;6.10;4.50;;;;;;;8.24;nan;99048.09;5001194;28;20092;-71
2021/11/04 03:10:32;;;;;;;7.60;4.53;;;;;;;8.23;nan;99061.53;5001284;28;20104;-71
2021/11/04 03:13:16;;;;;;;6.65;5.13;;;;;;;8.39;nan;99062.44;5016039;28;20064;-71
2021/11/04 03:16:03;;;;;;;7.97;5.35;;;;;;;8.44;nan;99067.28;5001095;28;20107;-70
2021/11/04 03:18:48;;;;;;;6.32;4.78;;;;;;;8.24;nan;99068.50;5001094;28;20189;-71
2021/11/04 03:21:32;;;;;;;6.63;5.13;;;;;;;8.39;nan;99069.56;4987327;28;20498;-71
2021/11/04 03:24:18;;;;;;;7.38;5.47;;;;;;;8.30;nan;99067.88;4987303;28;20049;-71
2021/11/04 03:27:04;;;;;;;6.78;5.10;;;;;;;8.21;nan;99059.03;5000843;28;20455;-71
2021/11/04 03:29:48;;;;;;;7.07;5.32;;;;;;;8.05;nan;99064.22;4987114;28;20053;-71
2021/11/04 03:32:33;;;;;;;7.43;5.70;;;;;;;8.28;nan;99072.50;5000951;28;20506;-70
2021/11/04 03:35:17;;;;;;;7.30;5.25;;;;;;;8.07;nan;99080.84;4986855;28;20041;-71
2021/11/04 03:38:03;;;;;;;8.27;5.57;;;;;;;8.11;nan;99068.91;5000855;28;20502;-71
2021/11/04 03:40:48;;;;;;;8.40;6.10;;;;;;;8.13;nan;99079.38;5000497;28;20111;-71
2021/11/04 03:43:32;;;;;;;8.27;6.13;;;;;;;8.18;nan;99079.72;5000393;28;20052;-70
2021/11/04 03:46:16;;;;;;;8.95;6.20;;;;;;;8.30;nan;99083.78;5000509;28;20104;-70
2021/11/04 03:49:01;;;;;;;8.32;5.68;;;;;;;8.09;nan;99080.66;4986256;28;20049;-71
2021/11/04 03:51:47;;;;;;;9.18;6.00;;;;;;;7.95;nan;99078.59;5000266;28;20052;-70
2021/11/04 03:54:31;;;;;;;9.00;6.22;;;;;;;7.93;nan;99075.28;5000733;28;20410;-70
2021/11/04 03:57:16;;;;;;;8.88;6.22;;;;;;;7.90;nan;99064.94;5000482;28;20076;-70
2021/11/04 04:00:00;;;;;;;13.73;6.32;;;;;;;7.98;nan;99051.72;5000164;28;20048;-70
2021/11/04 04:02:46;;;;;;;9.18;6.32;;;;;;;7.87;nan;99054.66;5000313;28;20053;-70
2021/11/04 04:05:32;;;;;;;9.82;6.50;;;;;;;7.85;nan;99056.63;5000068;28;20084;-70
2021/11/04 04:08:16;;;;;;;8.93;6.35;;;;;;;7.76;nan;99057.56;5000089;28;20056;-71
2021/11/04 04:11:00;;;;;;;11.15;6.68;;;;;;;7.71;nan;99051.88;4999954;28;20056;-69
2021/11/04 04:13:44;;;;;;;10.43;5.95;;;;;;;7.59;nan;99045.16;4986305;28;20049;-70
2021/11/04 04:16:28;;;;;;;11.65;6.20;;;;;;;7.56;nan;99037.53;4986628;28;20048;-70
2021/11/04 04:19:13;;;;;;;13.40;8.55;;;;;;;7.70;nan;99039.63;4999822;28;20099;-70
2021/11/04 04:21:57;;;;;;;14.75;7.68;;;;;;;7.64;nan;99049.03;4999977;28;20534;-70
2021/11/04 04:24:41;;;;;;;10.40;6.97;;;;;;;7.79;nan;99051.94;4986062;28;20072;-70
2021/11/04 04:27:25;;;;;;;11.02;7.60;;;;;;;7.58;nan;99043.50;4986208;28;20056;-69
2021/11/04 04:30:09;;;;;;;11.23;7.97;;;;;;;7.85;nan;99040.72;4999758;28;20108;-71
2021/11/04 04:32:53;;;;;;;12.32;7.97;;;;;;;7.71;nan;99049.22;4999594;28;20570;-70
2021/11/04 04:35:37;;;;;;;;;;;;;;;7.69;nan;99046.75;5000217;28;20044;-71
2021/11/04 04:38:21;;;;;;;11.30;7.57;;;;;;;7.66;nan;99049.72;5013163;28;20389;-70
2021/11/04 04:41:05;;;;;;;10.90;6.68;;;;;;;7.65;nan;99049.88;4999664;28;20263;-70
2021/11/04 04:43:49;;;;;;;11.60;7.80;;;;;;;7.71;nan;99055.38;4999465;28;20438;-70
2021/11/04 04:46:33;;;;;;;15.30;7.85;;;;;;;7.87;nan;99057.31;4985641;28;20053;-71
2021/11/04 04:49:17;;;;;;;10.02;7.38;;;;;;;7.90;nan;99064.94;4999106;28;20076;-70
2021/11/04 04:52:01;;;;;;;11.85;7.70;;;;;;;7.85;nan;99062.75;4999436;28;20061;-71
2021/11/04 04:54:45;;;;;;;10.98;7.72;;;;;;;7.94;nan;99061.81;5014033;28;20510;-71
2021/11/04 04:57:29;;;;;;;8.50;6.22;;;;;;;7.83;nan;99064.75;4999014;28;20168;-70
2021/11/04 05:00:14;;;;;;;11.80;6.75;;;;;;;7.78;nan;99066.19;4985481;28;20057;-70
2021/11/04 05:02:58;;;;;;;9.27;7.20;;;;;;;7.94;nan;99079.59;4985522;28;20550;-71
2021/11/04 05:05:42;;;;;;;9.10;5.80;;;;;;;7.82;nan;99080.84;4999092;28;20407;-70
2021/11/04 05:08:26;;;;;;;11.60;6.28;;;;;;;7.84;nan;99081.50;4999138;28;21826;-70
2021/11/04 05:11:10;;;;;;;10.63;6.82;;;;;;;7.88;nan;99085.50;5013881;28;20045;-71
2021/11/04 05:13:54;;;;;;;9.45;6.43;;;;;;;7.80;nan;99085.44;4985365;28;20052;-70
2021/11/04 05:16:38;;;;;;;9.00;6.47;;;;;;;7.88;nan;99082.84;5013895;28;20162;-71
2021/11/04 05:19:24;;;;;;;11.82;5.68;;;;;;;7.86;nan;99090.94;4985096;28;20103;-71
2021/11/04 05:22:07;;;;;;;9.45;7.03;;;;;;;7.98;nan;99088.88;4998919;28;20052;-70
2021/11/04 05:24:51;;;;;;;8.75;6.15;;;;;;;7.92;nan;99094.81;5013704;28;20514;-71
2021/11/04 05:27:35;;;;;;;10.00;6.60;;;;;;;7.78;nan;99090.91;4998735;28;20052;-70
2021/11/04 05:30:19;;;;;;;9.68;6.13;;;;;;;7.89;nan;99095.13;4998809;28;20101;-70
2021/11/04 05:33:03;;;;;;;11.80;6.43;;;;;;;7.99;nan;99103.81;4998843;28;20052;-71
2021/11/04 05:35:47;;;;;;;;;;;;;;;8.12;nan;99107.72;4999273;28;20064;-71
2021/11/04 05:38:31;;;;;;;9.52;6.43;;;;;;;8.20;nan;99099.00;5013601;28;19920;-71
2021/11/04 05:41:15;;;;;;;;;;;;;;;8.12;nan;99109.53;4999191;28;20069;-71
2021/11/04 05:43:59;;;;;;;12.67;6.97;;;;;;;8.01;nan;99105.34;4998754;28;19971;-71
2021/11/04 05:46:44;;;;;;;10.60;6.50;;;;;;;8.03;nan;99110.50;4998482;28;20286;-71
2021/11/04 05:49:28;;;;;;;8.88;5.82;;;;;;;7.95;nan;99115.75;4984925;28;20056;-70
2021/11/04 05:52:13;;;;;;;;;;;;;;;7.92;nan;99122.19;4999313;28;20080;-70
2021/11/04 05:54:56;;;;;;;;;;;;;;;7.96;nan;99120.06;5013069;28;19920;-71
2021/11/04 05:57:40;;;;;;;9.57;5.32;;;;;;;7.97;nan;99130.53;4998355;28;20337;-71
2021/11/04 06:00:24;;;;;;;8.73;6.20;;;;;;;8.00;nan;99130.22;4985001;28;20414;-70
2021/11/04 06:03:08;;;;;;;9.50;6.78;;;;;;;8.01;nan;99133.69;5013383;28;20515;-71
2021/11/04 06:05:52;;;;;;;9.43;5.95;;;;;;;8.03;nan;99134.38;4984863;28;20096;-70
2021/11/04 06:08:36;;;;;;;;;;;;;;;8.22;nan;99144.78;4998753;28;20048;-71
2021/11/04 06:11:20;;;;;;;9.50;5.37;;;;;;;8.10;nan;99146.03;5012109;28;20444;-70
2021/11/04 06:14:04;;;;;;;10.30;7.53;;;;;;;8.35;nan;99150.53;5000659;28;20092;-71
2021/11/04 06:16:48;;;;;;;12.02;6.93;;;;;;;8.16;nan;99151.53;4988830;28;20060;-71
2021/11/04 06:19:32;;;;;;;12.98;7.22;;;;;;;8.16;nan;99151.53;5002009;28;20048;-70
2021/11/04 06:22:16;;;;;;;9.90;6.68;;;;;;;8.09;nan;99163.78;5001930;28;20463;-70
2021/11/04 06:25:00;;;;;;;13.20;7.80;;;;;;;8.23;nan;99162.44;5002113;28;20494;-71
2021/11/04 06:27:44;;;;;;;10.98;7.43;;;;;;;8.19;nan;99171.66;5002113;28;20115;-70
2021/11/04 06:30:28;;;;;;;11.60;7.72;;;;;;;8.17;nan;99173.63;4987966;28;20057;-71
2021/11/04 06:33:12;;;;;;;13.00;9.10;;;;;;;8.41;nan;99179.09;5001938;28;20081;-70
2021/11/04 06:35:56;;;;;;;11.40;7.75;;;;;;;8.27;nan;99183.16;5001928;28;20041;-70
2021/11/04 06:38:40;;;;;;;13.13;8.68;;;;;;;8.18;nan;99191.22;5001559;28;20080;-70
2021/11/04 06:41:23;;;;;;;12.32;8.57;;;;;;;8.30;nan;99197.97;5016705;28;20199;-71
2021/11/04 06:44:07;;;;;;;11.60;8.23;;;;;;;8.36;nan;99197.34;5002039;28;20060;-70
2021/11/04 06:46:55;;;;;;;13.57;8.65;;;;;;;8.51;nan;99206.41;5001560;28;20060;-71
2021/11/04 06:49:39;;;;;;;12.85;8.15;;;;;;;8.32;nan;99206.59;5001479;28;20052;-71
2021/11/04 06:52:33;;;;;;;13.57;8.50;;;;;;;8.33;nan;99205.59;5016552;28;20068;-71
2021/11/04 06:55:17;;;;;;;;;;;;;;;8.53;nan;99209.72;5001735;28;20561;-70
2021/11/04 06:58:03;;;;;;;13.48;9.25;;;;;;;8.54;nan;99214.06;5015141;28;19920;-70
2021/11/04 07:00:47;;;;;;;15.23;8.95;;;;;;;8.46;nan;99216.66;5001301;28;20113;-71
2021/11/04 07:03:33;;;;;;;16.25;10.30;;;;;;;8.41;nan;99229.56;5001396;28;20053;-71
2021/11/04 07:06:25;;;;;;;13.85;8.85;;;;;;;8.34;nan;79961.63;5001309;28;20052;-70
2021/11/04 07:09:09;;;;;;;14.43;9.30;;;;;;;8.32;nan;99231.34;4988133;28;20120;-70
2021/11/04 07:11:54;;;;;;;16.05;10.68;;;;;;;8.39;nan;99234.19;5001230;28;20049;-70
2021/11/04 07:14:41;;;;;;;18.83;11.55;;;;;;;8.34;nan;99239.16;5001164;28;20133;-69
2021/11/04 07:17:25;;;;;;;19.65;10.45;;;;;;;8.24;nan;99241.88;5001147;28;20412;-69
2021/11/04 07:20:10;;;;;;;14.88;9.82;;;;;;;8.21;nan;99244.00;5001714;28;20168;-69
2021/11/04 07:22:55;;;;;;;19.70;10.55;;;;;;;8.36;nan;99245.16;4987140;28;20051;-70
2021/11/04 07:25:42;;;;;;;19.52;12.23;;;;;;;8.39;nan;99258.09;5000580;28;20049;-70
2021/11/04 07:28:28;;;;;;;19.38;12.27;;;;;;;8.35;nan;99262.06;5000620;28;20057;-70
2021/11/04 07:31:12;;;;;;;22.08;12.07;;;;;;;8.37;nan;99262.75;5000887;28;20557;-70
2021/11/04 07:33:56;;;;;;;20.65;12.10;;;;;;;8.45;nan;99273.44;5015699;28;20069;-70
2021/11/04 07:36:41;;;;;;;18.58;11.65;;;;;;;8.51;nan;99275.44;5000560;28;20552;-71
2021/11/04 07:39:25;;;;;;;18.02;11.77;;;;;;;8.40;nan;99281.84;5000776;28;20095;-70
2021/11/04 07:42:09;;;;;;;20.88;13.55;;;;;;;8.57;nan;99282.81;5000457;28;20084;-70
2021/11/04 07:44:56;;;;;;;19.20;11.23;;;;;;;8.51;nan;99288.72;5000625;28;20176;-70
2021/11/04 07:47:42;;;;;;;28.52;12.60;;;;;;;8.47;nan;99303.31;5014411;28;20406;-70
2021/11/04 07:50:28;;;;;;;20.98;11.82;;;;;;;8.55;nan;99303.38;5000059;28;20140;-70
2021/11/04 07:53:13;;;;;;;22.08;13.60;;;;;;;8.71;nan;99296.38;5000725;28;20048;-70
2021/11/04 07:55:57;;;;;;;18.15;10.85;;;;;;;8.54;nan;99304.38;4986740;28;20614;-70
2021/11/04 07:58:41;;;;;;;16.73;8.70;;;;;;;8.42;nan;99316.22;5000326;28;20048;-70
2021/11/04 08:01:25;;;;;;;23.98;12.02;;;;;;;8.67;nan;99316.25;5015488;28;20048;-71
2021/11/04 08:04:09;;;;;;;22.55;12.23;;;;;;;-139.48;100.00;80005.50;5000360;28;20092;-70
2021/11/04 08:06:53;;;;;;;20.20;11.88;;;;;;;8.56;nan;99327.13;5014851;28;20049;-70
2021/11/04 08:09:37;;;;;;;19.48;11.52;;;;;;;8.48;nan;99316.47;5000020;28;20052;-71
2021/11/04 08:12:21;;;;;;;16.73;9.98;;;;;;;8.46;nan;99328.22;5000309;28;20100;-70
2021/11/04 08:15:09;;;;;;;21.73;11.73;;;;;;;8.58;nan;99326.97;4986377;28;20056;-69
2021/11/04 08:17:53;;;;;;;23.25;12.63;;;;;;;8.59;nan;99326.00;5000007;28;20406;-70
2021/11/04 08:20:37;;;;;;;19.75;12.70;;;;;;;;;;5015033;28;20052;-71
2021/11/04 08:23:21;;;;;;;21.70;12.70;;;;;;;-139.48;100.00;61774.03;5014575;28;20051;-71
2021/11/04 08:26:05;;;;;;;20.33;12.43;;;;;;;-139.48;100.00;61774.03;4999925;28;20095;-71
2021/11/04 08:28:52;;;;;;;22.42;13.15;;;;;;;-139.48;100.00;61774.03;5014674;28;20048;-70
2021/11/04 08:31:35;;;;;;;21.83;12.27;;;;;;;-139.48;100.00;61774.03;4986176;28;20053;-70
2021/11/04 08:34:19;;;;;;;20.90;12.82;;;;;;;-139.48;100.00;61774.03;4999639;28;20096;-71
2021/11/04 08:37:03;;;;;;;22.70;13.55;;;;;;;-139.48;100.00;61774.03;4999126;28;20125;-71
2021/11/04 08:39:48;;;;;;;20.92;12.70;;;;;;;-139.48;100.00;61774.03;4999367;28;20049;-71
2021/11/04 08:42:31;;;;;;;;;;;;;;;-139.48;100.00;61774.03;5000030;28;20048;-71
2021/11/04 08:45:15;;;;;;;24.97;13.30;;;;;;;-139.48;100.00;61774.03;4999447;28;19964;-71
2021/11/04 08:47:59;;;;;;;22.15;12.93;;;;;;;-139.48;100.00;61774.03;5014350;28;20167;-71
2021/11/04 08:50:44;;;;;;;24.48;14.38;;;;;;;-139.48;100.00;61774.03;4999484;28;20048;-71
2021/11/04 08:53:28;;;;;;;22.05;13.27;;;;;;;-139.48;100.00;61774.03;5014298;28;20415;-71
2021/11/04 08:56:12;;;;;;;24.08;13.77;;;;;;;-139.48;100.00;61774.03;4999203;28;20096;-71
2021/11/04 08:58:56;;;;;;;24.90;13.55;;;;;;;-139.48;100.00;61774.03;5000747;28;20095;-71
2021/11/04 09:01:41;;;;;;;22.60;13.02;;;;;;;-139.48;100.00;61774.03;4999513;28;20171;-72
2021/11/04 09:04:27;;;;;;;24.38;12.55;;;;;;;-139.48;100.00;61774.03;4999062;28;20111;-72
2021/11/04 09:07:21;;;;;;;19.27;11.90;;;;;;;-139.48;100.00;61774.03;4999104;28;20052;-72
2021/11/04 09:10:07;;;;;;;20.47;11.93;;;;;;;-139.48;100.00;61774.03;4998921;28;20207;-72
2021/11/04 09:12:52;;;;;;;23.67;13.32;;;;;;;-139.48;100.00;61774.03;4985578;28;20057;-72
2021/11/04 09:15:36;;;;;;;23.80;12.73;;;;;;;-139.48;100.00;61774.03;4998859;28;20458;-72
2021/11/04 09:18:20;;;;;;;22.80;13.38;;;;;;;-139.48;100.00;61774.03;4985409;28;20056;-72
2021/11/04 09:21:05;;;;;;;28.30;15.05;;;;;;;-139.48;100.00;61774.03;4998671;28;20473;-72
2021/11/04 09:23:49;;;;;;;24.75;13.80;;;;;;;-139.48;100.00;61774.03;4998843;28;20072;-71
2021/11/04 09:26:37;;;;;;;21.20;12.50;;;;;;;-139.48;100.00;61774.03;4998833;28;20053;-71
2021/11/04 09:29:21;;;;;;;26.33;12.90;;;;;;;-139.48;100.00;61774.03;4998869;28;20509;-71
2021/11/04 09:32:08;;;;;;;;;;;;;;;-139.48;100.00;61774.03;5013908;28;20049;-71
2021/11/04 09:34:52;;;;;;;22.45;12.70;;;;;;;-139.48;100.00;61774.03;5012726;28;19921;-71
2021/11/04 09:37:37;;;;;;;23.05;13.90;;;;;;;-139.48;100.00;61774.03;4998521;28;20096;-71
2021/11/04 09:40:21;;;;;;;23.88;13.50;;;;;;;-139.48;100.00;61774.03;4998568;28;20052;-72
2021/11/04 09:43:05;;;;;;;25.50;13.45;;;;;;;-139.48;100.00;61774.03;4998674;28;20494;-71
2021/11/04 09:45:49;;;;;;;22.70;11.38;;;;;;;-139.48;100.00;61774.03;4998536;28;20124;-71
2021/11/04 09:48:37;;;;;;;25.20;12.70;;;;;;;-139.48;100.00;61774.03;5000089;28;20168;-73
2021/11/04 09:51:21;;;;;;;25.48;13.68;;;;;;;-139.48;100.00;61774.03;5002484;28;20104;-69
2021/11/04 09:54:05;;;;;;;26.20;14.77;;;;;;;-139.48;100.00;61774.03;4988719;28;20188;-69
2021/11/04 09:56:49;;;;;;;25.88;14.80;;;;;;;-139.48;100.00;61774.03;5002594;28;20100;-69
2021/11/04 09:59:34;;;;;;;28.20;14.95;;;;;;;-139.48;100.00;61774.03;5002569;28;20053;-69
2021/11/04 10:02:20;;;;;;;25.83;15.18;;;;;;;-139.48;100.00;61774.03;5002683;28;20048;-70
2021/11/04 10:05:08;;;;;;;26.42;13.90;;;;;;;-139.48;100.00;61774.03;5002226;28;20509;-69
2021/11/04 10:07:52;;;;;;;34.95;17.23;;;;;;;-139.48;100.00;61774.03;5002628;28;20129;-69
2021/11/04 10:10:36;;;;;;;33.42;17.50;;;;;;;-139.48;100.00;61774.03;5017267;28;20056;-69
2021/11/04 10:13:28;;;;;;;34.75;18.52;;;;;;;-139.48;100.00;61774.03;5016953;28;20419;-70
2021/11/04 10:16:14;;;;;;;42.58;20.40;;;;;;;-139.48;100.00;61774.03;5002253;28;20446;-70
2021/11/04 10:19:12;;;;;;;34.17;20.02;;;;;;;-139.48;100.00;61774.03;5017340;28;20052;-70
2021/11/04 10:21:56;;;;;;;35.70;19.05;;;;;;;-139.48;100.00;61774.03;5002232;28;20511;-69
2021/11/04 10:24:46;;;;;;;41.60;20.80;;;;;;;-139.48;100.00;61774.03;5002004;28;20053;-69
2021/11/04 10:27:33;;;;;;;39.53;19.85;;;;;;;-139.48;100.00;61774.03;4988304;28;20098;-70
2021/11/04 10:30:40;;;;;;;38.05;20.45;;;;;;;-139.48;100.00;61774.03;5002223;28;20129;-69
2021/11/04 10:33:30;;;;;;;38.65;19.77;;;;;;;-139.48;100.00;61774.03;5001873;28;20045;-69
2021/11/04 10:36:24;;;;;;;37.53;19.90;;;;;;;-139.48;100.00;61774.03;5001575;28;20088;-69
2021/11/04 10:39:08;;;;;;;41.13;22.35;;;;;;;-139.48;100.00;61774.03;5001495;28;20103;-70
2021/11/04 10:41:55;;;;;;;38.60;20.27;;;;;;;-139.48;100.00;61774.03;5001709;28;20056;-69
2021/11/04 10:44:39;;;;;;;42.95;23.25;;;;;;;-139.48;100.00;61774.03;5001554;28;20638;-69
2021/11/04 10:47:23;;;;;;;40.03;22.42;;;;;;;-139.48;100.00;61774.03;5016605;28;20519;-70
2021/11/04 10:50:07;;;;;;;38.22;22.23;;;;;;;-139.48;100.00;61774.03;5001265;28;20119;-70
2021/11/04 10:53:04;;;;;;;37.88;20.85;;;;;;;-139.48;100.00;61774.03;5001713;28;20427;-70
2021/11/04 10:56:14;;;;;;;36.63;21.20;;;;;;;-139.48;100.00;61774.03;5016410;28;20095;-71
2021/11/04 10:59:03;;;;;;;41.83;21.52;;;;;;;-139.48;100.00;61774.03;5001026;28;20434;-70
2021/11/04 11:01:52;;;;;;;43.08;22.92;;;;;;;-139.48;100.00;61774.03;5016006;28;20155;-69
2021/11/04 11:04:36;;;;;;;39.80;22.23;;;;;;;-139.48;100.00;61774.03;5001385;28;20049;-70
2021/11/04 11:07:20;;;;;;;38.35;22.13;;;;;;;-139.48;100.00;61774.03;5015766;28;20053;-70
2021/11/04 11:10:05;;;;;;;39.70;22.70;;;;;;;-139.48;100.00;61774.03;5001072;28;20141;-70
2021/11/04 11:12:49;;;;;;;37.72;20.48;;;;;;;-139.48;100.00;61774.03;5001186;28;20560;-71
2021/11/04 11:15:34;;;;;;;35.47;21.85;;;;;;;-139.48;100.00;61774.03;5016170;28;20092;-70
2021/11/04 11:18:21;;;;;;;36.28;22.17;;;;;;;-139.48;100.00;61774.03;4987522;28;20087;-70
2021/11/04 11:21:08;;;;;;;40.10;24.20;;;;;;;-139.48;100.00;61774.03;5001210;28;20502;-70
2021/11/04 11:23:53;;;;;;;45.45;23.95;;;;;;;-139.48;100.00;61774.03;5000689;28;20423;-70
2021/11/04 11:26:37;;;;;;;38.13;19.42;;;;;;;-139.48;100.00;61774.03;5000698;28;20092;-69
2021/11/04 11:29:22;;;;;;;34.47;13.85;;;;;;;-139.48;100.00;61774.03;5000987;28;20140;-69
2021/11/04 11:32:23;;;;;;;41.72;21.83;;;;;;;-139.48;100.00;61774.03;5000917;28;20048;-70
2021/11/04 11:35:14;;;;;;;41.58;23.48;;;;;;;-139.48;100.00;61774.03;4987114;28;20052;-70
2021/11/04 11:38:01;;;;;;;30.27;17.00;;;;;;;-139.48;100.00;61774.03;5014542;28;20423;-69
2021/11/04 11:41:00;;;;;;;34.30;19.67;;;;;;;-139.48;100.00;61774.03;5000719;28;20056;-68
2021/11/04 11:43:53;;;;;;;36.15;20.95;;;;;;;-139.48;100.00;61774.03;5015383;28;20049;-68
2021/11/04 11:47:04;;;;;;;30.33;18.40;;;;;;;-139.48;100.00;61774.03;5000441;28;20260;-69
2021/11/04 11:49:50;;;;;;;36.88;20.40;;;;;;;-139.48;100.00;61774.03;5015164;28;20048;-69
2021/11/04 11:52:40;;;;;;;37.47;20.50;;;;;;;-139.48;100.00;61774.03;5000011;28;20053;-69
2021/11/04 11:55:38;;;;;;;21.02;14.07;;;;;;;-139.48;100.00;61774.03;5015291;28;20081;-69
2021/11/04 11:58:43;;;;;;;29.90;18.42;;;;;;;-139.48;100.00;61774.03;5000439;28;20472;-69
2021/11/04 12:01:45;;;;;;;27.10;17.58;;;;;;;-139.48;100.00;61774.03;5000352;28;20053;-69
2021/11/04 12:04:29;;;;;;;30.92;18.48;;;;;;;-139.48;100.00;61774.03;5000268;28;20064;-69
2021/11/04 12:07:27;;;;;;;28.23;17.33;;;;;;;-139.48;100.00;61774.03;5000183;28;20112;-69
2021/11/04 12:10:29;;;;;;;25.67;15.43;;;;;;;-139.48;100.00;61774.03;4999696;28;20125;-68
2021/11/04 12:13:31;;;;;;;24.48;13.55;;;;;;;-139.48;100.00;61774.03;5013671;28;20052;-69
2021/11/04 12:16:22;;;;;;;25.40;13.65;;;;;;;-139.48;100.00;61774.03;5000129;28;20499;-69
2021/11/04 12:19:06;;;;;;;26.67;15.38;;;;;;;-139.48;100.00;61774.03;4999818;28;20053;-68
2021/11/04 12:21:50;;;;;;;25.75;14.85;;;;;;;-139.48;100.00;61774.03;4999743;28;20534;-69
2021/11/04 12:24:34;;;;;;;27.65;17.90;;;;;;;-139.48;100.00;61774.03;4999778;28;20052;-69
2021/11/04 12:27:21;;;;;;;26.30;16.15;;;;;;;-139.48;100.00;61774.03;5014513;28;20054;-69
2021/11/04 12:30:12;;;;;;;25.40;14.68;;;;;;;-139.48;100.00;61774.03;4999510;28;20096;-70
2021/11/04 12:32:57;;;;;;;25.13;16.00;;;;;;;-139.48;100.00;61774.03;5014584;28;20053;-70
2021/11/04 12:36:07;;;;;;;22.38;13.10;;;;;;;-139.48;100.00;61774.03;5013470;28;20470;-69
2021/11/04 12:38:51;;;;;;;22.90;14.05;;;;;;;-139.48;100.00;61774.03;5014103;28;20049;-69
2021/11/04 12:41:45;;;;;;;21.67;15.38;;;;;;;-139.48;100.00;61774.03;4999474;28;20048;-68
2021/11/04 12:44:31;;;;;;;20.10;14.30;;;;;;;-139.48;100.00;61774.03;4999429;28;20581;-69
2021/11/04 12:47:17;;;;;;;19.92;12.07;;;;;;;-139.48;100.00;61774.03;5013054;28;20501;-69
2021/11/04 12:50:01;;;;;;;20.60;14.00;;;;;;;-139.48;100.00;61774.03;4998954;28;20107;-69
2021/11/04 12:52:45;;;;;;;19.60;12.32;;;;;;;-139.48;100.00;61774.03;5014069;28;20082;-69
2021/11/04 12:55:29;;;;;;;17.65;11.20;;;;;;;-139.48;100.00;61774.03;4999421;28;20129;-69
2021/11/04 12:58:13;;;;;;;16.83;11.32;;;;;;;-139.48;100.00;61774.03;4999268;28;20100;-69
2021/11/04 13:01:01;;;;;;;18.58;12.20;;;;;;;-139.48;100.00;61774.03;4999064;28;20048;-70
2021/11/04 13:03:56;;;;;;;16.40;12.07;;;;;;;-139.48;100.00;61774.03;4999021;28;20180;-69